sensor_id;sensor_type;location;lat;lon;timestamp;temperature;humidity
15359;DHT22;7779;49.596;11.070;2022-12-01T00:01:06;5.50;70.30
15359;DHT22;7779;49.596;11.070;2022-12-01T00:03:33;5.50;70.20
15359;DHT22;7779;49.596;11.070;2022-12-01T00:06:08;5.50;70.20
15359;DHT22;7779;49.596;11.070;2022-12-01T00:08:37;5.50;70.10
15359;DHT22;7779;49.596;11.070;2022-12-01T00:11:09;5.50;70.30
15359;DHT22;7779;49.596;11.070;2022-12-01T00:13:39;5.50;70.10
15359;DHT22;7779;49.596;11.070;2022-12-01T00:16:12;5.50;70.20
15359;DHT22;7779;49.596;11.070;2022-12-01T00:18:40;5.50;70.10
15359;DHT22;7779;49.596;11.070;2022-12-01T00:21:12;5.50;70.20
15359;DHT22;7779;49.596;11.070;2022-12-01T00:23:42;5.40;70.10
15359;DHT22;7779;49.596;11.070;2022-12-01T00:26:08;5.50;70.30
15359;DHT22;7779;49.596;11.070;2022-12-01T00:28:33;5.40;70.30
15359;DHT22;7779;49.596;11.070;2022-12-01T00:30:59;5.40;70.30
15359;DHT22;7779;49.596;11.070;2022-12-01T00:33:25;5.40;70.30
15359;DHT22;7779;49.596;11.070;2022-12-01T00:35:57;5.50;70.30
15359;DHT22;7779;49.596;11.070;2022-12-01T00:38:23;5.40;70.10
15359;DHT22;7779;49.596;11.070;2022-12-01T00:40:49;5.40;70.30
15359;DHT22;7779;49.596;11.070;2022-12-01T00:43:15;5.40;70.30
15359;DHT22;7779;49.596;11.070;2022-12-01T00:45:42;5.40;70.30
15359;DHT22;7779;49.596;11.070;2022-12-01T00:48:08;5.40;70.30
15359;DHT22;7779;49.596;11.070;2022-12-01T00:50:33;5.40;71.00
15359;DHT22;7779;49.596;11.070;2022-12-01T00:52:59;5.40;70.30
15359;DHT22;7779;49.596;11.070;2022-12-01T00:55:25;5.40;70.30
15359;DHT22;7779;49.596;11.070;2022-12-01T00:57:51;5.40;70.30
15359;DHT22;7779;49.596;11.070;2022-12-01T01:00:16;5.40;70.30
15359;DHT22;7779;49.596;11.070;2022-12-01T01:02:42;5.40;70.30
15359;DHT22;7779;49.596;11.070;2022-12-01T01:05:08;5.40;70.30
15359;DHT22;7779;49.596;11.070;2022-12-01T01:07:34;5.40;70.30
15359;DHT22;7779;49.596;11.070;2022-12-01T01:10:00;5.40;70.30
15359;DHT22;7779;49.596;11.070;2022-12-01T01:12:26;5.40;70.30
15359;DHT22;7779;49.596;11.070;2022-12-01T01:14:52;5.40;70.30
15359;DHT22;7779;49.596;11.070;2022-12-01T01:17:18;5.40;70.30
15359;DHT22;7779;49.596;11.070;2022-12-01T01:19:44;5.40;70.40
15359;DHT22;7779;49.596;11.070;2022-12-01T01:22:10;5.40;70.50
15359;DHT22;7779;49.596;11.070;2022-12-01T01:24:36;5.40;70.60
15359;DHT22;7779;49.596;11.070;2022-12-01T01:27:02;5.40;70.60
15359;DHT22;7779;49.596;11.070;2022-12-01T01:29:30;5.40;70.50
15359;DHT22;7779;49.596;11.070;2022-12-01T01:31:56;5.40;70.60
15359;DHT22;7779;49.596;11.070;2022-12-01T01:34:22;5.40;70.60
15359;DHT22;7779;49.596;11.070;2022-12-01T01:36:48;5.40;70.60
15359;DHT22;7779;49.596;11.070;2022-12-01T01:39:15;5.50;70.70
15359;DHT22;7779;49.596;11.070;2022-12-01T01:41:41;5.50;70.70
15359;DHT22;7779;49.596;11.070;2022-12-01T01:44:44;5.50;70.70
15359;DHT22;7779;49.596;11.070;2022-12-01T01:49:50;5.50;69.60
15359;DHT22;7779;49.596;11.070;2022-12-01T01:52:17;5.50;70.70
15359;DHT22;7779;49.596;11.070;2022-12-01T01:54:46;5.50;70.70
15359;DHT22;7779;49.596;11.070;2022-12-01T01:57:20;5.50;70.70
15359;DHT22;7779;49.596;11.070;2022-12-01T01:59:57;5.50;70.60
15359;DHT22;7779;49.596;11.070;2022-12-01T02:02:26;5.40;70.60
15359;DHT22;7779;49.596;11.070;2022-12-01T02:04:58;5.50;70.70
15359;DHT22;7779;49.596;11.070;2022-12-01T02:07:26;5.40;70.60
15359;DHT22;7779;49.596;11.070;2022-12-01T02:09:53;5.40;70.70
15359;DHT22;7779;49.596;11.070;2022-12-01T02:30:08;5.40;70.60
15359;DHT22;7779;49.596;11.070;2022-12-01T02:32:47;5.40;70.70
15359;DHT22;7779;49.596;11.070;2022-12-01T02:35:23;5.40;70.70
15359;DHT22;7779;49.596;11.070;2022-12-01T02:38:17;5.40;70.90
15359;DHT22;7779;49.596;11.070;2022-12-01T02:40:51;5.40;70.90
15359;DHT22;7779;49.596;11.070;2022-12-01T02:43:28;5.40;70.90
15359;DHT22;7779;49.596;11.070;2022-12-01T02:46:09;5.40;71.00
15359;DHT22;7779;49.596;11.070;2022-12-01T02:48:40;5.40;70.90
15359;DHT22;7779;49.596;11.070;2022-12-01T02:51:14;5.40;71.00
15359;DHT22;7779;49.596;11.070;2022-12-01T02:53:45;5.40;71.00
15359;DHT22;7779;49.596;11.070;2022-12-01T02:56:12;5.40;71.00
15359;DHT22;7779;49.596;11.070;2022-12-01T02:58:42;5.30;70.90
15359;DHT22;7779;49.596;11.070;2022-12-01T03:04:22;5.40;70.60
15359;DHT22;7779;49.596;11.070;2022-12-01T03:10:15;5.30;71.00
15359;DHT22;7779;49.596;11.070;2022-12-01T03:16:00;5.40;71.30
15359;DHT22;7779;49.596;11.070;2022-12-01T03:21:36;5.40;71.40
15359;DHT22;7779;49.596;11.070;2022-12-01T03:24:21;5.40;71.40
15359;DHT22;7779;49.596;11.070;2022-12-01T03:26:54;5.40;71.40
15359;DHT22;7779;49.596;11.070;2022-12-01T03:29:27;5.40;71.40
15359;DHT22;7779;49.596;11.070;2022-12-01T03:32:02;5.40;71.40
15359;DHT22;7779;49.596;11.070;2022-12-01T03:34:44;5.40;70.70
15359;DHT22;7779;49.596;11.070;2022-12-01T03:37:28;5.40;71.40
15359;DHT22;7779;49.596;11.070;2022-12-01T03:40:21;5.40;71.30
15359;DHT22;7779;49.596;11.070;2022-12-01T03:43:06;5.40;71.40
15359;DHT22;7779;49.596;11.070;2022-12-01T03:46:22;5.40;71.30
15359;DHT22;7779;49.596;11.070;2022-12-01T03:48:44;5.40;71.30
15359;DHT22;7779;49.596;11.070;2022-12-01T03:51:38;5.40;71.40
15359;DHT22;7779;49.596;11.070;2022-12-01T03:54:26;5.40;71.40
15359;DHT22;7779;49.596;11.070;2022-12-01T03:57:05;5.40;71.50
15359;DHT22;7779;49.596;11.070;2022-12-01T03:59:36;5.40;71.50
15359;DHT22;7779;49.596;11.070;2022-12-01T04:02:06;5.40;71.60
15359;DHT22;7779;49.596;11.070;2022-12-01T04:04:32;5.50;71.70
15359;DHT22;7779;49.596;11.070;2022-12-01T04:06:58;5.50;71.70
15359;DHT22;7779;49.596;11.070;2022-12-01T04:09:24;5.50;71.70
15359;DHT22;7779;49.596;11.070;2022-12-01T04:11:50;5.50;71.80
15359;DHT22;7779;49.596;11.070;2022-12-01T04:14:34;5.50;71.80
15359;DHT22;7779;49.596;11.070;2022-12-01T04:17:00;5.50;71.80
15359;DHT22;7779;49.596;11.070;2022-12-01T04:19:26;5.50;71.80
15359;DHT22;7779;49.596;11.070;2022-12-01T04:21:52;5.50;71.80
15359;DHT22;7779;49.596;11.070;2022-12-01T04:24:17;5.50;71.80
15359;DHT22;7779;49.596;11.070;2022-12-01T04:26:43;5.50;71.80
15359;DHT22;7779;49.596;11.070;2022-12-01T04:29:11;5.50;71.80
15359;DHT22;7779;49.596;11.070;2022-12-01T04:31:39;5.50;71.80
15359;DHT22;7779;49.596;11.070;2022-12-01T04:34:05;5.50;71.80
15359;DHT22;7779;49.596;11.070;2022-12-01T04:36:33;5.50;71.20
15359;DHT22;7779;49.596;11.070;2022-12-01T04:38:59;5.50;71.80
15359;DHT22;7779;49.596;11.070;2022-12-01T04:41:25;5.50;71.80
15359;DHT22;7779;49.596;11.070;2022-12-01T04:43:53;5.50;71.80
15359;DHT22;7779;49.596;11.070;2022-12-01T04:46:19;5.50;71.80
15359;DHT22;7779;49.596;11.070;2022-12-01T04:48:46;5.50;71.80
15359;DHT22;7779;49.596;11.070;2022-12-01T04:51:12;5.60;71.90
15359;DHT22;7779;49.596;11.070;2022-12-01T04:53:38;5.50;71.70
15359;DHT22;7779;49.596;11.070;2022-12-01T04:56:03;5.60;71.80
15359;DHT22;7779;49.596;11.070;2022-12-01T04:58:31;5.50;72.30
15359;DHT22;7779;49.596;11.070;2022-12-01T05:01:05;5.50;71.60
15359;DHT22;7779;49.596;11.070;2022-12-01T05:03:40;5.50;71.50
15359;DHT22;7779;49.596;11.070;2022-12-01T05:06:13;5.50;71.50
15359;DHT22;7779;49.596;11.070;2022-12-01T05:08:41;5.50;71.50
15359;DHT22;7779;49.596;11.070;2022-12-01T05:11:07;5.40;71.40
15359;DHT22;7779;49.596;11.070;2022-12-01T05:13:36;5.40;71.50
15359;DHT22;7779;49.596;11.070;2022-12-01T05:18:39;5.40;71.70
15359;DHT22;7779;49.596;11.070;2022-12-01T05:21:06;5.40;71.80
15359;DHT22;7779;49.596;11.070;2022-12-01T05:23:35;5.40;71.80
15359;DHT22;7779;49.596;11.070;2022-12-01T05:26:04;5.40;71.90
15359;DHT22;7779;49.596;11.070;2022-12-01T05:28:31;5.40;71.90
15359;DHT22;7779;49.596;11.070;2022-12-01T05:30:57;5.40;71.90
15359;DHT22;7779;49.596;11.070;2022-12-01T05:33:24;5.40;72.00
15359;DHT22;7779;49.596;11.070;2022-12-01T05:35:51;5.40;72.00
15359;DHT22;7779;49.596;11.070;2022-12-01T05:38:18;5.40;72.00
15359;DHT22;7779;49.596;11.070;2022-12-01T05:40:52;5.40;72.00
15359;DHT22;7779;49.596;11.070;2022-12-01T05:43:20;5.40;72.00
15359;DHT22;7779;49.596;11.070;2022-12-01T05:45:47;5.40;72.00
15359;DHT22;7779;49.596;11.070;2022-12-01T05:48:14;5.40;72.00
15359;DHT22;7779;49.596;11.070;2022-12-01T05:50:41;5.40;72.00
15359;DHT22;7779;49.596;11.070;2022-12-01T05:53:13;5.40;72.00
15359;DHT22;7779;49.596;11.070;2022-12-01T05:55:39;5.40;72.00
15359;DHT22;7779;49.596;11.070;2022-12-01T05:58:05;5.40;72.00
15359;DHT22;7779;49.596;11.070;2022-12-01T06:00:31;5.50;72.10
15359;DHT22;7779;49.596;11.070;2022-12-01T06:02:56;5.40;72.00
15359;DHT22;7779;49.596;11.070;2022-12-01T06:05:22;5.50;72.10
15359;DHT22;7779;49.596;11.070;2022-12-01T06:07:48;5.50;72.00
15359;DHT22;7779;49.596;11.070;2022-12-01T06:10:14;5.50;72.00
15359;DHT22;7779;49.596;11.070;2022-12-01T06:12:39;5.40;71.80
15359;DHT22;7779;49.596;11.070;2022-12-01T06:15:06;5.40;71.60
15359;DHT22;7779;49.596;11.070;2022-12-01T06:17:32;5.40;71.50
15359;DHT22;7779;49.596;11.070;2022-12-01T06:19:58;5.30;70.80
15359;DHT22;7779;49.596;11.070;2022-12-01T06:22:24;5.40;71.40
15359;DHT22;7779;49.596;11.070;2022-12-01T06:24:50;5.30;71.40
15359;DHT22;7779;49.596;11.070;2022-12-01T06:27:16;5.30;71.40
15359;DHT22;7779;49.596;11.070;2022-12-01T06:29:42;5.30;71.50
15359;DHT22;7779;49.596;11.070;2022-12-01T06:32:08;5.20;71.40
15359;DHT22;7779;49.596;11.070;2022-12-01T06:34:35;5.20;71.50
15359;DHT22;7779;49.596;11.070;2022-12-01T06:37:01;5.20;71.60
15359;DHT22;7779;49.596;11.070;2022-12-01T06:39:27;5.20;71.70
15359;DHT22;7779;49.596;11.070;2022-12-01T06:41:52;5.20;71.80
15359;DHT22;7779;49.596;11.070;2022-12-01T06:44:18;5.10;71.30
15359;DHT22;7779;49.596;11.070;2022-12-01T06:46:44;5.10;71.90
15359;DHT22;7779;49.596;11.070;2022-12-01T06:49:10;5.10;72.00
15359;DHT22;7779;49.596;11.070;2022-12-01T06:51:37;5.10;72.10
15359;DHT22;7779;49.596;11.070;2022-12-01T06:54:03;5.20;72.20
15359;DHT22;7779;49.596;11.070;2022-12-01T06:56:29;5.20;72.20
15359;DHT22;7779;49.596;11.070;2022-12-01T06:58:55;5.20;72.20
15359;DHT22;7779;49.596;11.070;2022-12-01T07:01:21;5.20;72.30
15359;DHT22;7779;49.596;11.070;2022-12-01T07:03:50;5.20;72.20
15359;DHT22;7779;49.596;11.070;2022-12-01T07:06:17;5.20;72.20
15359;DHT22;7779;49.596;11.070;2022-12-01T07:08:43;5.20;72.10
15359;DHT22;7779;49.596;11.070;2022-12-01T07:11:11;5.20;72.80
15359;DHT22;7779;49.596;11.070;2022-12-01T07:13:40;5.20;72.10
15359;DHT22;7779;49.596;11.070;2022-12-01T07:16:09;5.20;72.10
15359;DHT22;7779;49.596;11.070;2022-12-01T07:18:35;5.20;72.10
15359;DHT22;7779;49.596;11.070;2022-12-01T07:21:04;5.20;72.20
15359;DHT22;7779;49.596;11.070;2022-12-01T07:23:34;5.20;72.20
15359;DHT22;7779;49.596;11.070;2022-12-01T07:26:12;5.20;72.20
15359;DHT22;7779;49.596;11.070;2022-12-01T07:28:40;5.20;72.10
15359;DHT22;7779;49.596;11.070;2022-12-01T07:31:08;5.20;72.10
15359;DHT22;7779;49.596;11.070;2022-12-01T07:33:35;5.30;72.10
15359;DHT22;7779;49.596;11.070;2022-12-01T07:36:02;5.30;72.10
15359;DHT22;7779;49.596;11.070;2022-12-01T07:38:30;5.30;72.10
15359;DHT22;7779;49.596;11.070;2022-12-01T07:41:11;5.30;72.10
15359;DHT22;7779;49.596;11.070;2022-12-01T07:43:39;5.30;72.10
15359;DHT22;7779;49.596;11.070;2022-12-01T07:46:16;5.30;72.10
15359;DHT22;7779;49.596;11.070;2022-12-01T07:48:43;5.30;72.10
15359;DHT22;7779;49.596;11.070;2022-12-01T07:51:11;5.30;72.10
15359;DHT22;7779;49.596;11.070;2022-12-01T07:53:41;5.30;72.10
15359;DHT22;7779;49.596;11.070;2022-12-01T07:56:10;5.30;72.00
15359;DHT22;7779;49.596;11.070;2022-12-01T07:58:38;5.30;72.00
15359;DHT22;7779;49.596;11.070;2022-12-01T08:01:08;5.30;71.90
15359;DHT22;7779;49.596;11.070;2022-12-01T08:03:37;5.30;71.90
15359;DHT22;7779;49.596;11.070;2022-12-01T08:06:04;5.30;71.90
15359;DHT22;7779;49.596;11.070;2022-12-01T08:08:31;5.20;71.80
15359;DHT22;7779;49.596;11.070;2022-12-01T08:11:00;5.30;71.90
15359;DHT22;7779;49.596;11.070;2022-12-01T08:13:28;5.20;71.90
15359;DHT22;7779;49.596;11.070;2022-12-01T08:15:53;5.30;72.10
15359;DHT22;7779;49.596;11.070;2022-12-01T08:18:19;5.30;72.10
15359;DHT22;7779;49.596;11.070;2022-12-01T08:20:45;5.20;72.10
15359;DHT22;7779;49.596;11.070;2022-12-01T08:23:11;5.20;72.10
15359;DHT22;7779;49.596;11.070;2022-12-01T08:25:37;5.20;72.10
15359;DHT22;7779;49.596;11.070;2022-12-01T08:28:03;5.30;72.10
15359;DHT22;7779;49.596;11.070;2022-12-01T08:30:29;5.30;72.10
15359;DHT22;7779;49.596;11.070;2022-12-01T08:32:56;5.20;72.10
15359;DHT22;7779;49.596;11.070;2022-12-01T08:35:23;5.20;72.10
15359;DHT22;7779;49.596;11.070;2022-12-01T08:37:51;5.30;72.10
15359;DHT22;7779;49.596;11.070;2022-12-01T08:40:18;5.30;72.10
15359;DHT22;7779;49.596;11.070;2022-12-01T08:42:44;5.30;72.10
15359;DHT22;7779;49.596;11.070;2022-12-01T08:45:10;5.30;72.10
15359;DHT22;7779;49.596;11.070;2022-12-01T08:47:36;5.30;72.10
15359;DHT22;7779;49.596;11.070;2022-12-01T08:50:02;5.30;72.00
15359;DHT22;7779;49.596;11.070;2022-12-01T08:52:33;5.30;72.10
15359;DHT22;7779;49.596;11.070;2022-12-01T08:54:59;5.30;71.40
15359;DHT22;7779;49.596;11.070;2022-12-01T08:57:28;5.30;72.10
15359;DHT22;7779;49.596;11.070;2022-12-01T08:59:54;5.30;72.00
15359;DHT22;7779;49.596;11.070;2022-12-01T09:02:20;5.30;72.10
15359;DHT22;7779;49.596;11.070;2022-12-01T09:04:49;5.30;72.10
15359;DHT22;7779;49.596;11.070;2022-12-01T09:07:16;5.30;72.10
15359;DHT22;7779;49.596;11.070;2022-12-01T09:09:44;5.40;72.30
15359;DHT22;7779;49.596;11.070;2022-12-01T09:12:10;5.40;72.50
15359;DHT22;7779;49.596;11.070;2022-12-01T09:14:38;5.40;72.60
15359;DHT22;7779;49.596;11.070;2022-12-01T09:17:07;5.40;72.80
15359;DHT22;7779;49.596;11.070;2022-12-01T09:19:34;5.50;72.90
15359;DHT22;7779;49.596;11.070;2022-12-01T09:22:00;5.50;73.00
15359;DHT22;7779;49.596;11.070;2022-12-01T09:24:27;5.60;72.20
15359;DHT22;7779;49.596;11.070;2022-12-01T09:26:57;5.60;73.10
15359;DHT22;7779;49.596;11.070;2022-12-01T09:29:23;5.70;73.10
15359;DHT22;7779;49.596;11.070;2022-12-01T09:31:49;5.80;73.20
15359;DHT22;7779;49.596;11.070;2022-12-01T09:34:17;5.80;73.20
15359;DHT22;7779;49.596;11.070;2022-12-01T09:36:45;5.80;73.20
15359;DHT22;7779;49.596;11.070;2022-12-01T09:39:19;5.90;73.30
15359;DHT22;7779;49.596;11.070;2022-12-01T09:42:05;6.00;73.40
15359;DHT22;7779;49.596;11.070;2022-12-01T09:44:49;6.00;72.70
15359;DHT22;7779;49.596;11.070;2022-12-01T09:50:02;6.20;73.50
15359;DHT22;7779;49.596;11.070;2022-12-01T09:52:48;6.30;73.30
15359;DHT22;7779;49.596;11.070;2022-12-01T09:55:20;6.40;71.70
15359;DHT22;7779;49.596;11.070;2022-12-01T09:57:52;6.50;73.20
15359;DHT22;7779;49.596;11.070;2022-12-01T10:00:22;6.50;72.90
15359;DHT22;7779;49.596;11.070;2022-12-01T10:02:57;6.60;72.90
15359;DHT22;7779;49.596;11.070;2022-12-01T10:05:49;6.60;72.70
15359;DHT22;7779;49.596;11.070;2022-12-01T10:08:23;6.70;72.40
15359;DHT22;7779;49.596;11.070;2022-12-01T10:10:57;6.80;72.90
15359;DHT22;7779;49.596;11.070;2022-12-01T10:13:32;6.90;72.90
15359;DHT22;7779;49.596;11.070;2022-12-01T10:16:12;6.90;72.90
15359;DHT22;7779;49.596;11.070;2022-12-01T10:19:03;7.00;72.20
15359;DHT22;7779;49.596;11.070;2022-12-01T10:25:00;7.10;72.40
15359;DHT22;7779;49.596;11.070;2022-12-01T10:27:53;7.20;72.20
15359;DHT22;7779;49.596;11.070;2022-12-01T10:30:24;7.20;72.30
15359;DHT22;7779;49.596;11.070;2022-12-01T10:33:08;7.30;72.50
15359;DHT22;7779;49.596;11.070;2022-12-01T10:35:44;7.30;71.90
15359;DHT22;7779;49.596;11.070;2022-12-01T10:38:23;7.40;72.70
15359;DHT22;7779;49.596;11.070;2022-12-01T10:40:55;7.50;72.50
15359;DHT22;7779;49.596;11.070;2022-12-01T10:43:52;7.60;72.90
15359;DHT22;7779;49.596;11.070;2022-12-01T10:46:32;7.60;70.70
15359;DHT22;7779;49.596;11.070;2022-12-01T10:49:09;7.70;72.20
15359;DHT22;7779;49.596;11.070;2022-12-01T10:51:55;7.80;72.30
15359;DHT22;7779;49.596;11.070;2022-12-01T10:54:30;7.90;71.50
15359;DHT22;7779;49.596;11.070;2022-12-01T10:57:00;8.00;72.20
15359;DHT22;7779;49.596;11.070;2022-12-01T10:59:31;8.00;72.00
15359;DHT22;7779;49.596;11.070;2022-12-01T11:02:14;8.10;71.80
15359;DHT22;7779;49.596;11.070;2022-12-01T11:04:53;8.10;71.20
15359;DHT22;7779;49.596;11.070;2022-12-01T11:07:33;8.20;71.00
15359;DHT22;7779;49.596;11.070;2022-12-01T11:10:15;8.20;70.80
15359;DHT22;7779;49.596;11.070;2022-12-01T11:16:37;8.30;70.10
15359;DHT22;7779;49.596;11.070;2022-12-01T11:19:09;8.30;68.90
15359;DHT22;7779;49.596;11.070;2022-12-01T11:21:48;8.30;70.20
15359;DHT22;7779;49.596;11.070;2022-12-01T11:24:42;8.30;69.90
15359;DHT22;7779;49.596;11.070;2022-12-01T11:27:19;8.30;69.20
15359;DHT22;7779;49.596;11.070;2022-12-01T11:29:49;8.40;70.50
15359;DHT22;7779;49.596;11.070;2022-12-01T11:32:28;8.40;70.70
15359;DHT22;7779;49.596;11.070;2022-12-01T11:37:43;8.50;69.40
15359;DHT22;7779;49.596;11.070;2022-12-01T11:42:53;8.60;70.50
15359;DHT22;7779;49.596;11.070;2022-12-01T11:45:34;8.60;70.30
15359;DHT22;7779;49.596;11.070;2022-12-01T11:51:07;8.80;69.40
15359;DHT22;7779;49.596;11.070;2022-12-01T11:53:41;8.80;68.70
15359;DHT22;7779;49.596;11.070;2022-12-01T11:58:49;8.90;69.20
15359;DHT22;7779;49.596;11.070;2022-12-01T12:04:23;8.90;68.80
15359;DHT22;7779;49.596;11.070;2022-12-01T12:16:11;9.00;68.60
15359;DHT22;7779;49.596;11.070;2022-12-01T12:27:07;9.10;67.70
15359;DHT22;7779;49.596;11.070;2022-12-01T12:30:21;9.10;68.10
15359;DHT22;7779;49.596;11.070;2022-12-01T12:36:04;9.10;66.00
15359;DHT22;7779;49.596;11.070;2022-12-01T12:41:53;9.20;67.80
15359;DHT22;7779;49.596;11.070;2022-12-01T12:44:47;9.20;68.50
15359;DHT22;7779;49.596;11.070;2022-12-01T12:47:31;9.20;67.80
15359;DHT22;7779;49.596;11.070;2022-12-01T12:50:47;9.20;67.80
15359;DHT22;7779;49.596;11.070;2022-12-01T12:53:32;9.20;66.80
15359;DHT22;7779;49.596;11.070;2022-12-01T12:56:06;9.20;68.10
15359;DHT22;7779;49.596;11.070;2022-12-01T12:58:38;9.20;68.20
15359;DHT22;7779;49.596;11.070;2022-12-01T13:01:23;9.30;68.10
15359;DHT22;7779;49.596;11.070;2022-12-01T13:04:03;9.30;67.30
15359;DHT22;7779;49.596;11.070;2022-12-01T13:06:44;9.30;67.30
15359;DHT22;7779;49.596;11.070;2022-12-01T13:15:02;9.40;65.20
15359;DHT22;7779;49.596;11.070;2022-12-01T13:17:43;9.40;67.60
15359;DHT22;7779;49.596;11.070;2022-12-01T13:20:15;9.40;67.90
15359;DHT22;7779;49.596;11.070;2022-12-01T13:22:44;9.30;67.60
15359;DHT22;7779;49.596;11.070;2022-12-01T13:25:15;9.40;67.80
15359;DHT22;7779;49.596;11.070;2022-12-01T13:27:44;9.30;67.60
15359;DHT22;7779;49.596;11.070;2022-12-01T13:30:24;9.40;67.70
15359;DHT22;7779;49.596;11.070;2022-12-01T13:33:02;9.30;66.90
15359;DHT22;7779;49.596;11.070;2022-12-01T13:35:35;9.40;67.00
15359;DHT22;7779;49.596;11.070;2022-12-01T13:38:23;9.30;67.10
15359;DHT22;7779;49.596;11.070;2022-12-01T13:46:49;9.30;67.70
15359;DHT22;7779;49.596;11.070;2022-12-01T13:57:34;9.20;66.60
15359;DHT22;7779;49.596;11.070;2022-12-01T14:08:22;9.20;66.70
15359;DHT22;7779;49.596;11.070;2022-12-01T14:11:02;9.20;67.00
15359;DHT22;7779;49.596;11.070;2022-12-01T14:13:42;9.30;66.60
15359;DHT22;7779;49.596;11.070;2022-12-01T14:16:14;9.30;67.20
15359;DHT22;7779;49.596;11.070;2022-12-01T14:18:50;9.30;67.40
15359;DHT22;7779;49.596;11.070;2022-12-01T14:21:40;9.30;67.20
15359;DHT22;7779;49.596;11.070;2022-12-01T14:24:46;9.30;66.00
15359;DHT22;7779;49.596;11.070;2022-12-01T14:27:39;9.40;66.40
15359;DHT22;7779;49.596;11.070;2022-12-01T14:36:33;9.40;65.50
15359;DHT22;7779;49.596;11.070;2022-12-01T14:39:18;9.30;65.20
15359;DHT22;7779;49.596;11.070;2022-12-01T14:50:03;9.30;65.90
15359;DHT22;7779;49.596;11.070;2022-12-01T14:52:48;9.30;66.00
15359;DHT22;7779;49.596;11.070;2022-12-01T14:55:24;9.30;66.50
15359;DHT22;7779;49.596;11.070;2022-12-01T14:58:03;9.20;66.20
15359;DHT22;7779;49.596;11.070;2022-12-01T15:01:11;9.20;66.10
15359;DHT22;7779;49.596;11.070;2022-12-01T15:03:49;9.20;65.90
15359;DHT22;7779;49.596;11.070;2022-12-01T15:06:25;9.10;65.90
15359;DHT22;7779;49.596;11.070;2022-12-01T15:14:33;9.00;65.70
15359;DHT22;7779;49.596;11.070;2022-12-01T15:17:01;9.00;66.60
15359;DHT22;7779;49.596;11.070;2022-12-01T15:19:32;9.00;66.50
15359;DHT22;7779;49.596;11.070;2022-12-01T15:22:01;8.90;67.10
15359;DHT22;7779;49.596;11.070;2022-12-01T15:24:30;8.90;65.40
15359;DHT22;7779;49.596;11.070;2022-12-01T15:26:58;8.90;66.70
15359;DHT22;7779;49.596;11.070;2022-12-01T15:29:29;8.90;66.70
15359;DHT22;7779;49.596;11.070;2022-12-01T15:32:03;8.80;66.50
15359;DHT22;7779;49.596;11.070;2022-12-01T15:34:35;8.80;66.50
15359;DHT22;7779;49.596;11.070;2022-12-01T15:37:13;8.80;66.70
15359;DHT22;7779;49.596;11.070;2022-12-01T15:39:48;8.80;66.70
15359;DHT22;7779;49.596;11.070;2022-12-01T15:42:24;8.70;66.60
15359;DHT22;7779;49.596;11.070;2022-12-01T15:45:22;8.40;66.20
15359;DHT22;7779;49.596;11.070;2022-12-01T15:47:52;8.70;66.10
15359;DHT22;7779;49.596;11.070;2022-12-01T15:50:40;8.70;66.80
15359;DHT22;7779;49.596;11.070;2022-12-01T15:53:26;8.60;66.20
15359;DHT22;7779;49.596;11.070;2022-12-01T15:55:57;8.60;66.40
15359;DHT22;7779;49.596;11.070;2022-12-01T15:58:28;8.60;66.90
15359;DHT22;7779;49.596;11.070;2022-12-01T16:01:11;8.60;66.90
15359;DHT22;7779;49.596;11.070;2022-12-01T16:03:58;8.50;66.70
15359;DHT22;7779;49.596;11.070;2022-12-01T16:06:33;8.50;66.60
15359;DHT22;7779;49.596;11.070;2022-12-01T16:09:17;8.50;66.90
15359;DHT22;7779;49.596;11.070;2022-12-01T16:14:55;8.40;65.70
15359;DHT22;7779;49.596;11.070;2022-12-01T16:17:51;8.50;66.90
15359;DHT22;7779;49.596;11.070;2022-12-01T16:23:07;8.40;66.90
15359;DHT22;7779;49.596;11.070;2022-12-01T16:25:38;8.40;67.00
15359;DHT22;7779;49.596;11.070;2022-12-01T16:28:19;8.30;67.00
15359;DHT22;7779;49.596;11.070;2022-12-01T16:30:48;8.30;66.90
15359;DHT22;7779;49.596;11.070;2022-12-01T16:33:20;8.30;67.20
15359;DHT22;7779;49.596;11.070;2022-12-01T16:35:49;8.20;67.10
15359;DHT22;7779;49.596;11.070;2022-12-01T16:38:20;8.20;67.20
15359;DHT22;7779;49.596;11.070;2022-12-01T16:40:59;8.20;67.30
15359;DHT22;7779;49.596;11.070;2022-12-01T16:43:27;8.10;67.20
15359;DHT22;7779;49.596;11.070;2022-12-01T16:46:02;8.10;67.40
15359;DHT22;7779;49.596;11.070;2022-12-01T16:48:30;8.10;67.40
15359;DHT22;7779;49.596;11.070;2022-12-01T16:51:01;8.00;67.40
15359;DHT22;7779;49.596;11.070;2022-12-01T16:53:29;8.00;67.40
15359;DHT22;7779;49.596;11.070;2022-12-01T16:55:57;8.00;67.50
15359;DHT22;7779;49.596;11.070;2022-12-01T16:58:24;7.90;67.50
15359;DHT22;7779;49.596;11.070;2022-12-01T17:00:50;7.90;67.60
15359;DHT22;7779;49.596;11.070;2022-12-01T17:03:24;7.90;67.60
15359;DHT22;7779;49.596;11.070;2022-12-01T17:05:52;7.90;67.80
15359;DHT22;7779;49.596;11.070;2022-12-01T17:08:18;7.80;67.80
15359;DHT22;7779;49.596;11.070;2022-12-01T17:10:46;7.80;67.80
15359;DHT22;7779;49.596;11.070;2022-12-01T17:13:15;7.80;67.90
15359;DHT22;7779;49.596;11.070;2022-12-01T17:15:43;7.80;68.00
15359;DHT22;7779;49.596;11.070;2022-12-01T17:18:11;7.80;68.00
15359;DHT22;7779;49.596;11.070;2022-12-01T17:20:37;7.70;68.00
15359;DHT22;7779;49.596;11.070;2022-12-01T17:23:04;7.70;68.00
15359;DHT22;7779;49.596;11.070;2022-12-01T17:25:30;7.70;68.10
15359;DHT22;7779;49.596;11.070;2022-12-01T17:27:57;7.70;68.10
15359;DHT22;7779;49.596;11.070;2022-12-01T17:30:23;7.70;68.20
15359;DHT22;7779;49.596;11.070;2022-12-01T17:32:49;7.60;68.10
15359;DHT22;7779;49.596;11.070;2022-12-01T17:35:15;7.60;68.10
15359;DHT22;7779;49.596;11.070;2022-12-01T17:37:42;7.60;68.20
15359;DHT22;7779;49.596;11.070;2022-12-01T17:40:11;7.60;68.20
15359;DHT22;7779;49.596;11.070;2022-12-01T17:42:40;7.60;68.90
15359;DHT22;7779;49.596;11.070;2022-12-01T17:45:07;7.60;68.20
15359;DHT22;7779;49.596;11.070;2022-12-01T17:47:33;7.60;68.20
15359;DHT22;7779;49.596;11.070;2022-12-01T17:49:58;7.60;68.20
15359;DHT22;7779;49.596;11.070;2022-12-01T17:52:24;7.60;68.20
15359;DHT22;7779;49.596;11.070;2022-12-01T17:54:50;7.50;68.20
15359;DHT22;7779;49.596;11.070;2022-12-01T17:57:15;7.50;68.10
15359;DHT22;7779;49.596;11.070;2022-12-01T17:59:41;7.60;68.30
15359;DHT22;7779;49.596;11.070;2022-12-01T18:02:10;7.60;68.30
15359;DHT22;7779;49.596;11.070;2022-12-01T18:04:37;7.50;67.00
15359;DHT22;7779;49.596;11.070;2022-12-01T18:07:03;7.50;68.10
15359;DHT22;7779;49.596;11.070;2022-12-01T18:09:29;7.60;68.10
15359;DHT22;7779;49.596;11.070;2022-12-01T18:11:55;7.60;68.10
15359;DHT22;7779;49.596;11.070;2022-12-01T18:14:22;7.60;68.20
15359;DHT22;7779;49.596;11.070;2022-12-01T18:16:48;7.60;68.10
15359;DHT22;7779;49.596;11.070;2022-12-01T18:19:14;7.60;68.20
15359;DHT22;7779;49.596;11.070;2022-12-01T18:21:40;7.50;68.00
15359;DHT22;7779;49.596;11.070;2022-12-01T18:24:06;7.60;68.20
15359;DHT22;7779;49.596;11.070;2022-12-01T18:26:35;7.60;68.20
15359;DHT22;7779;49.596;11.070;2022-12-01T18:29:17;7.60;68.20
15359;DHT22;7779;49.596;11.070;2022-12-01T18:31:56;7.60;67.90